Time;durP1;ratioP1;P1;durP2;ratioP2;P2;SDS_P1;SDS_P2;PMS_P1;PMS_P2;Temp;Humidity;BMP_temperature;BMP_pressure;BME280_temperature;BME280_humidity;BME280_pressure;Samples;Min_cycle;Max_cycle;Signal;HPM_P1;HPM_P2
2023/11/24 00:00:49;;;;;;;1.02;0.70;;;;;;;4.55;54.25;92168.53;4956915;28;20035;-77
2023/11/24 00:03:15;;;;;;;0.95;0.77;;;;;;;4.55;53.72;92176.31;4950723;29;20039;-78
2023/11/24 00:05:40;;;;;;;0.73;0.73;;;;;;;4.54;54.28;92174.75;4951120;29;20078;-78
2023/11/24 00:08:06;;;;;;;1.00;0.90;;;;;;;4.53;55.05;92175.03;4918175;29;20049;-77
2023/11/24 00:10:31;;;;;;;1.00;0.90;;;;;;;4.51;55.64;92171.91;4942514;29;20056;-77
2023/11/24 00:12:57;;;;;;;0.93;0.90;;;;;;;4.49;55.53;92173.97;4931510;29;20058;-77
2023/11/24 00:15:23;;;;;;;1.38;0.80;;;;;;;4.48;55.99;92168.00;4949952;29;20589;-78
2023/11/24 00:17:50;;;;;;;0.82;0.60;;;;;;;4.48;56.30;92178.38;4950588;28;20058;-77
2023/11/24 00:20:16;;;;;;;0.90;0.80;;;;;;;4.47;56.65;92163.06;4942396;29;20035;-77
2023/11/24 00:22:42;;;;;;;2.15;0.75;;;;;;;4.47;56.57;92163.06;4942265;29;20039;-77
2023/11/24 00:25:09;;;;;;;0.70;0.70;;;;;;;4.45;55.99;92162.56;4930919;29;20375;-77
2023/11/24 00:27:37;;;;;;;0.80;0.80;;;;;;;4.44;57.10;92155.81;4946738;29;20043;-77
2023/11/24 00:30:07;;;;;;;1.20;0.77;;;;;;;4.45;56.31;92165.16;4957158;28;20399;-78
2023/11/24 00:32:36;;;;;;;0.93;0.85;;;;;;;4.45;54.89;92147.00;4950445;28;20487;-77
2023/11/24 00:35:01;;;;;;;0.95;0.70;;;;;;;4.49;55.43;92140.28;4950645;28;20103;-78
2023/11/24 00:37:28;;;;;;;0.70;0.70;;;;;;;4.51;55.14;92140.81;4949816;29;20047;-77
2023/11/24 00:39:55;;;;;;;0.70;0.70;;;;;;;4.51;55.20;92133.78;4945014;29;20043;-77
2023/11/24 00:42:21;;;;;;;0.80;0.80;;;;;;;4.52;55.79;92127.56;4919218;29;20039;-77
2023/11/24 00:44:47;;;;;;;0.82;0.80;;;;;;;4.53;55.19;92118.78;4930839;29;20031;-77
2023/11/24 00:47:12;;;;;;;1.08;0.80;;;;;;;4.56;54.62;92115.66;4935431;29;20042;-77
2023/11/24 00:49:39;;;;;;;1.00;0.57;;;;;;;4.63;55.20;92115.41;4937313;29;20059;-77
2023/11/24 00:52:05;;;;;;;0.63;0.63;;;;;;;4.67;54.79;92124.22;4929176;29;20074;-77
2023/11/24 00:54:31;;;;;;;1.00;0.90;;;;;;;4.74;53.38;92098.81;4952108;29;20034;-77
2023/11/24 00:56:57;;;;;;;0.70;0.70;;;;;;;4.83;52.99;92091.28;4935581;29;20539;-77
2023/11/24 00:59:22;;;;;;;1.55;0.93;;;;;;;4.89;53.56;92086.91;4960121;28;20046;-77
2023/11/24 01:01:48;;;;;;;0.82;0.70;;;;;;;4.92;53.64;92086.38;4952339;29;20550;-77
2023/11/24 01:04:14;;;;;;;1.33;0.80;;;;;;;5.37;48.87;92085.50;4919769;29;20039;-77
2023/11/24 01:06:39;;;;;;;1.20;0.82;;;;;;;5.44;49.08;92069.66;4951952;29;20516;-77
2023/11/24 01:09:06;;;;;;;0.75;0.60;;;;;;;5.45;49.95;92075.63;4935522;29;20042;-77
2023/11/24 01:11:33;;;;;;;1.38;0.80;;;;;;;5.42;50.82;92071.75;4931842;29;20046;-77
2023/11/24 01:13:58;;;;;;;0.70;0.70;;;;;;;5.41;51.70;92065.00;4934689;29;20024;-77
2023/11/24 01:16:24;;;;;;;2.58;0.80;;;;;;;5.37;52.60;92058.78;4952406;29;20582;-77
2023/11/24 01:18:51;;;;;;;0.88;0.77;;;;;;;5.35;52.24;92048.66;4919326;29;20044;-77
2023/11/24 01:21:17;;;;;;;0.77;0.65;;;;;;;5.37;50.12;92049.16;4935381;29;20044;-77
2023/11/24 01:23:43;;;;;;;0.60;0.60;;;;;;;5.68;51.57;92043.88;4934960;29;20042;-77
2023/11/24 01:26:11;;;;;;;1.08;0.80;;;;;;;5.56;50.86;92040.78;4948457;29;20059;-77
2023/11/24 01:28:38;;;;;;;0.80;0.80;;;;;;;5.46;51.15;92041.63;4948398;28;20035;-77
2023/11/24 01:31:05;;;;;;;2.63;1.30;;;;;;;5.41;52.91;92042.41;4933332;29;20055;-77
2023/11/24 01:33:31;;;;;;;2.58;1.20;;;;;;;5.32;54.06;92045.81;4934801;29;20042;-77
2023/11/24 01:35:58;;;;;;;1.30;0.90;;;;;;;5.30;51.75;92038.28;4932865;29;20043;-77
2023/11/24 01:38:23;;;;;;;1.60;1.10;;;;;;;5.26;55.63;92039.09;4942847;28;20507;-77
2023/11/24 01:40:50;;;;;;;1.30;0.82;;;;;;;5.18;54.38;92036.00;4927318;29;20051;-77
2023/11/24 01:43:15;;;;;;;0.70;0.68;;;;;;;5.14;53.49;92034.19;4934820;29;20459;-77
2023/11/24 01:45:42;;;;;;;1.10;0.82;;;;;;;5.06;53.90;92014.72;4935832;29;20055;-77
2023/11/24 01:48:08;;;;;;;1.38;0.60;;;;;;;5.04;54.87;92014.22;4944844;28;20298;-77
2023/11/24 01:50:36;;;;;;;2.47;0.80;;;;;;;5.00;54.96;92002.84;4929339;29;20472;-77
2023/11/24 01:53:02;;;;;;;0.98;0.70;;;;;;;4.98;54.03;92004.91;4939195;29;20042;-77
2023/11/24 01:55:28;;;;;;;0.80;0.80;;;;;;;4.96;52.65;91988.84;4933844;29;20451;-77
2023/11/24 01:57:54;;;;;;;1.15;0.75;;;;;;;4.97;53.44;91987.78;4918775;28;20028;-77
2023/11/24 02:00:21;;;;;;;0.95;0.77;;;;;;;4.92;53.80;91977.44;4934698;29;20043;-77
2023/11/24 02:02:46;;;;;;;1.05;0.80;;;;;;;4.94;53.13;91977.94;4934860;29;20050;-77
2023/11/24 02:05:12;;;;;;;2.17;0.80;;;;;;;4.96;53.06;91970.69;4934302;29;20511;-77
2023/11/24 02:07:39;;;;;;;1.05;0.75;;;;;;;4.90;53.94;91958.75;4934140;29;20034;-77
2023/11/24 02:10:06;;;;;;;0.85;0.77;;;;;;;4.87;54.66;91952.28;4940784;29;20464;-77
2023/11/24 02:12:32;;;;;;;0.70;0.70;;;;;;;4.93;53.65;91950.44;4934001;29;20051;-76
2023/11/24 02:14:57;;;;;;;0.98;0.70;;;;;;;4.91;54.79;91950.72;4908433;29;20047;-77
2023/11/24 02:17:24;;;;;;;0.73;0.60;;;;;;;4.85;54.84;91938.03;4918493;29;20044;-77
2023/11/24 02:19:51;;;;;;;0.82;0.80;;;;;;;4.80;55.38;91929.22;4929016;29;20515;-77
2023/11/24 02:22:16;;;;;;;0.73;0.73;;;;;;;4.80;55.18;91941.41;4931078;29;20119;-77
2023/11/24 02:24:42;;;;;;;0.85;0.80;;;;;;;4.76;55.51;91923.00;4924898;29;20067;-77
2023/11/24 02:27:08;;;;;;;0.70;0.70;;;;;;;4.80;53.85;91931.03;4928718;29;20048;-77
2023/11/24 02:29:33;;;;;;;0.60;0.60;;;;;;;5.06;52.68;91921.34;4928629;29;20031;-77
2023/11/24 02:31:59;;;;;;;0.73;0.63;;;;;;;5.06;54.02;91912.78;4929120;29;20054;-77
2023/11/24 02:34:24;;;;;;;0.60;0.60;;;;;;;5.02;54.02;91909.94;4930618;29;20048;-76
2023/11/24 02:36:51;;;;;;;1.08;0.70;;;;;;;5.01;53.95;91895.44;4924928;29;20036;-77
2023/11/24 02:39:16;;;;;;;0.88;0.65;;;;;;;5.01;53.27;91890.25;4920408;29;20519;-77
2023/11/24 02:41:42;;;;;;;0.80;0.70;;;;;;;5.00;54.27;91878.31;4925292;29;20040;-77
2023/11/24 02:44:07;;;;;;;0.60;0.60;;;;;;;5.03;53.66;91880.38;4931562;29;20047;-77
2023/11/24 02:46:33;;;;;;;0.60;0.60;;;;;;;5.02;54.14;91858.06;4931024;29;20078;-77
2023/11/24 02:49:00;;;;;;;1.60;0.60;;;;;;;5.10;52.96;91864.53;4931585;29;20443;-77
2023/11/24 02:51:25;;;;;;;0.90;0.70;;;;;;;5.12;52.84;91865.03;4929946;29;20034;-77
2023/11/24 02:53:51;;;;;;;0.93;0.63;;;;;;;5.09;53.07;91845.59;4930137;29;20074;-77
2023/11/24 02:56:17;;;;;;;0.63;0.63;;;;;;;5.15;52.68;91843.72;4916789;29;20464;-77
2023/11/24 02:58:42;;;;;;;0.70;0.70;;;;;;;5.17;52.84;91846.84;4928205;29;20042;-77
2023/11/24 03:01:08;;;;;;;0.65;0.60;;;;;;;5.21;52.69;91830.47;4925681;29;20035;-77
2023/11/24 03:03:34;;;;;;;0.90;0.60;;;;;;;5.26;51.90;91828.88;4922523;29;20054;-77
2023/11/24 03:06:06;;;;;;;0.63;0.60;;;;;;;5.46;50.36;91827.97;4913829;29;20127;-77
2023/11/24 03:08:32;;;;;;;1.55;0.70;;;;;;;5.47;50.34;91824.31;4924532;29;20135;-77
2023/11/24 03:10:58;;;;;;;1.30;0.73;;;;;;;5.48;50.08;91816.28;4913732;29;20048;-77
2023/11/24 03:13:24;;;;;;;0.50;0.50;;;;;;;5.52;49.34;91806.91;4926371;29;20032;-77
2023/11/24 03:15:52;;;;;;;0.60;0.60;;;;;;;5.59;51.12;91809.97;4923195;29;20436;-77
2023/11/24 03:18:18;;;;;;;0.63;0.63;;;;;;;5.61;50.13;91784.50;4922560;29;20047;-77
2023/11/24 03:20:44;;;;;;;0.50;0.50;;;;;;;5.89;48.05;91794.41;4930327;29;20042;-77
2023/11/24 03:23:09;;;;;;;0.60;0.60;;;;;;;5.92;48.09;91791.25;4924342;29;20039;-77
2023/11/24 03:25:35;;;;;;;0.40;0.40;;;;;;;6.00;47.42;91781.06;4923450;29;20042;-77
2023/11/24 03:28:01;;;;;;;0.60;0.60;;;;;;;5.98;48.79;91772.00;4934744;29;20416;-77
2023/11/24 03:30:27;;;;;;;0.70;0.70;;;;;;;6.07;47.13;91765.16;4930453;29;20028;-77
2023/11/24 03:32:53;;;;;;;0.50;0.50;;;;;;;6.26;47.00;91760.03;4930357;29;20067;-77
2023/11/24 03:35:19;;;;;;;0.70;0.57;;;;;;;6.24;48.39;91762.13;4929307;29;20044;-77
2023/11/24 03:37:45;;;;;;;0.60;0.60;;;;;;;6.21;49.77;91766.06;4923340;29;20441;-77
2023/11/24 03:40:10;;;;;;;0.68;0.68;;;;;;;6.17;49.53;91735.69;4924783;29;20040;-77
2023/11/24 03:42:36;;;;;;;0.43;0.43;;;;;;;6.34;48.26;91736.00;4929815;29;20528;-77
2023/11/24 03:45:04;;;;;;;0.60;0.60;;;;;;;6.41;48.09;91741.66;4921832;29;20035;-77
2023/11/24 03:47:30;;;;;;;0.45;0.45;;;;;;;6.35;48.74;91740.19;4923186;29;20091;-77
2023/11/24 03:49:59;;;;;;;0.75;0.70;;;;;;;6.38;47.18;91729.22;4930194;29;20162;-77
2023/11/24 03:52:25;;;;;;;0.60;0.60;;;;;;;6.44;46.58;91728.09;4931823;29;20044;-77
2023/11/24 03:54:51;;;;;;;0.70;0.70;;;;;;;6.44;47.72;91722.91;4930624;29;20063;-77
2023/11/24 03:57:18;;;;;;;0.82;0.70;;;;;;;6.37;47.98;91725.06;4929891;29;20377;-77
2023/11/24 03:59:43;;;;;;;0.80;0.63;;;;;;;6.44;48.45;91728.09;4931063;29;20042;-77
2023/11/24 04:02:09;;;;;;;0.57;0.57;;;;;;;6.42;47.74;91722.41;4931880;29;20047;-77
2023/11/24 04:04:35;;;;;;;0.50;0.50;;;;;;;6.37;48.07;91713.88;4930177;29;20036;-77
2023/11/24 04:07:00;;;;;;;0.63;0.63;;;;;;;6.29;48.41;91710.09;4927049;29;20040;-77
2023/11/24 04:09:26;;;;;;;0.73;0.73;;;;;;;6.24;48.88;91697.94;4933030;29;20081;-77
2023/11/24 04:11:54;;;;;;;1.85;0.60;;;;;;;6.17;49.72;91691.50;4927194;29;20047;-77
2023/11/24 04:14:20;;;;;;;0.68;0.68;;;;;;;6.14;49.87;91692.06;4940322;29;20138;-77
2023/11/24 04:16:46;;;;;;;0.70;0.70;;;;;;;6.13;50.26;91693.91;4934332;29;20066;-77
2023/11/24 04:19:11;;;;;;;0.80;0.50;;;;;;;6.18;50.88;91695.66;4933223;29;20130;-77
2023/11/24 04:21:39;;;;;;;0.77;0.73;;;;;;;6.23;48.85;91682.59;4926860;29;20485;-77
2023/11/24 04:24:06;;;;;;;0.85;0.52;;;;;;;6.29;47.58;91663.31;4934584;29;20578;-77
2023/11/24 04:26:32;;;;;;;0.65;0.65;;;;;;;6.31;48.22;91669.00;4921760;29;20096;-77
2023/11/24 04:28:58;;;;;;;0.52;0.52;;;;;;;6.36;48.96;91668.16;4928771;29;20055;-77
2023/11/24 04:31:23;;;;;;;0.45;0.45;;;;;;;6.36;49.03;91663.72;4927066;29;20464;-77
2023/11/24 04:33:49;;;;;;;0.50;0.50;;;;;;;6.32;48.52;91654.16;4934381;29;20090;-77
2023/11/24 04:36:17;;;;;;;0.70;0.70;;;;;;;6.30;48.70;91654.44;4934837;29;20063;-77
2023/11/24 04:38:45;;;;;;;1.10;0.60;;;;;;;6.39;49.03;91652.75;4932721;29;20094;-77
2023/11/24 04:41:11;;;;;;;0.65;0.65;;;;;;;6.39;49.51;91642.34;4926192;29;20087;-77
2023/11/24 04:43:38;;;;;;;0.65;0.65;;;;;;;6.31;49.44;91642.25;4934070;29;20099;-77
2023/11/24 04:46:04;;;;;;;0.70;0.70;;;;;;;6.45;48.70;91643.06;4934423;29;20091;-77
2023/11/24 04:48:30;;;;;;;0.50;0.50;;;;;;;6.43;49.54;91638.16;4933756;29;20031;-77
2023/11/24 04:50:55;;;;;;;0.75;0.70;;;;;;;6.38;49.94;91625.22;4933744;29;20070;-77
2023/11/24 04:53:22;;;;;;;0.63;0.63;;;;;;;6.87;45.58;91625.84;4933937;29;20118;-77
2023/11/24 04:55:47;;;;;;;1.02;0.60;;;;;;;6.85;46.24;91639.13;4923669;29;20036;-77
2023/11/24 04:58:13;;;;;;;0.75;0.70;;;;;;;6.80;47.16;91631.41;4927883;29;20560;-77
2023/11/24 05:00:38;;;;;;;0.80;0.60;;;;;;;7.23;44.79;91644.25;4934812;29;20035;-77
2023/11/24 05:03:05;;;;;;;0.55;0.55;;;;;;;7.18;46.73;91633.94;4926688;29;20031;-77
2023/11/24 05:05:30;;;;;;;0.77;0.68;;;;;;;7.04;47.04;91631.28;4925146;29;20051;-77
2023/11/24 05:07:56;;;;;;;0.60;0.60;;;;;;;6.95;47.08;91632.22;4930304;29;20048;-77
2023/11/24 05:10:22;;;;;;;0.40;0.40;;;;;;;6.87;47.67;91628.44;4932993;29;20055;-77
2023/11/24 05:12:47;;;;;;;3.33;0.70;;;;;;;6.85;46.93;91628.72;4917075;29;20543;-77
2023/11/24 05:15:13;;;;;;;0.60;0.60;;;;;;;7.03;45.95;91608.16;4928929;29;20064;-77
2023/11/24 05:17:38;;;;;;;0.57;0.57;;;;;;;6.97;46.92;91619.69;4921637;29;20547;-77
2023/11/24 05:20:08;;;;;;;0.60;0.60;;;;;;;6.94;47.15;91612.47;4936112;29;20099;-77
2023/11/24 05:22:34;;;;;;;0.70;0.70;;;;;;;6.94;47.38;91599.47;4929292;29;20118;-77
2023/11/24 05:24:59;;;;;;;0.68;0.68;;;;;;;6.94;47.69;91595.03;4931790;29;20182;-77
2023/11/24 05:27:25;;;;;;;0.85;0.80;;;;;;;6.95;48.06;91595.78;4920131;29;20055;-77
2023/11/24 05:29:50;;;;;;;0.52;0.52;;;;;;;6.92;48.39;91591.94;4931448;29;20051;-77
2023/11/24 05:32:16;;;;;;;1.25;0.77;;;;;;;6.98;49.67;91595.22;4933211;29;20079;-78
2023/11/24 05:34:42;;;;;;;0.50;0.50;;;;;;;7.02;49.70;91580.56;4925185;29;20063;-77
2023/11/24 05:37:07;;;;;;;0.52;0.52;;;;;;;7.39;46.86;91584.91;4926178;29;20091;-77
2023/11/24 05:39:37;;;;;;;0.88;0.70;;;;;;;7.70;47.24;91595.53;4928889;29;20040;-77
2023/11/24 05:42:04;;;;;;;1.58;0.88;;;;;;;7.80;46.13;91575.56;4934541;29;20043;-79
2023/11/24 05:44:30;;;;;;;1.33;0.80;;;;;;;7.85;46.32;91583.25;4933223;29;20431;-78
2023/11/24 05:46:56;;;;;;;0.93;0.70;;;;;;;7.88;47.27;91567.03;4934041;29;20044;-78
2023/11/24 05:49:21;;;;;;;1.27;1.10;;;;;;;8.02;46.73;91574.84;4932637;29;20042;-78
2023/11/24 05:51:47;;;;;;;1.40;0.80;;;;;;;7.98;46.13;91569.44;4933044;29;20016;-77
2023/11/24 05:54:12;;;;;;;1.58;0.80;;;;;;;8.00;46.70;91572.53;4933514;29;20059;-77
2023/11/24 05:56:39;;;;;;;1.65;0.77;;;;;;;8.04;48.45;91567.53;4932963;29;20151;-77
2023/11/24 05:59:05;;;;;;;0.65;0.65;;;;;;;8.13;48.47;91576.97;4930153;29;20035;-77
2023/11/24 06:01:31;;;;;;;2.90;0.88;;;;;;;8.21;47.92;91578.09;4930105;29;20050;-78
2023/11/24 06:03:56;;;;;;;1.58;0.90;;;;;;;8.32;48.46;91582.03;4931911;29;20036;-78
2023/11/24 06:06:22;;;;;;;2.95;0.80;;;;;;;9.11;48.31;91572.19;4929996;29;20514;-78
2023/11/24 06:08:47;;;;;;;1.92;0.70;;;;;;;9.41;46.25;91569.88;4930456;29;20078;-78
2023/11/24 06:11:17;;;;;;;0.95;0.77;;;;;;;9.98;44.11;91567.31;4920786;29;20059;-77
2023/11/24 06:13:45;;;;;;;3.15;0.90;;;;;;;10.07;43.69;91564.72;4923963;29;20071;-78
2023/11/24 06:16:11;;;;;;;1.30;0.80;;;;;;;10.36;44.47;91579.88;4926436;29;20048;-78
2023/11/24 06:18:39;;;;;;;1.55;0.90;;;;;;;10.62;41.85;91572.78;4934694;29;20108;-78
2023/11/24 06:21:06;;;;;;;1.88;1.00;;;;;;;11.27;40.12;91578.13;4932912;29;20050;-78
2023/11/24 06:23:31;;;;;;;2.47;0.90;;;;;;;11.29;41.20;91575.97;4934377;29;20121;-78
2023/11/24 06:25:57;;;;;;;0.93;0.75;;;;;;;11.58;40.65;91571.88;4932712;29;20047;-79
2023/11/24 06:28:24;;;;;;;0.75;0.75;;;;;;;11.62;40.91;91564.94;4932213;29;20044;-78
2023/11/24 06:30:50;;;;;;;0.75;0.70;;;;;;;11.72;40.74;91569.81;4930031;29;20070;-78
2023/11/24 06:33:16;;;;;;;2.45;0.90;;;;;;;11.78;40.33;91558.09;4932568;29;20071;-77
2023/11/24 06:35:42;;;;;;;0.98;0.70;;;;;;;12.25;38.84;91544.91;4932144;29;20576;-77
2023/11/24 06:38:08;;;;;;;1.40;0.60;;;;;;;12.48;38.38;91552.47;4933025;29;20126;-77
2023/11/24 06:40:36;;;;;;;1.23;0.55;;;;;;;12.82;37.91;91542.78;4934667;29;20124;-78
2023/11/24 06:43:01;;;;;;;1.05;0.70;;;;;;;12.95;37.17;91548.84;4931909;29;20040;-78
2023/11/24 06:45:28;;;;;;;1.80;0.60;;;;;;;12.96;37.88;91553.78;4934941;29;20377;-78
2023/11/24 06:47:54;;;;;;;1.10;0.70;;;;;;;12.90;38.12;91549.81;4934658;29;20044;-78
2023/11/24 06:50:19;;;;;;;1.77;0.75;;;;;;;12.94;37.22;91542.81;4934867;29;20039;-78
2023/11/24 06:52:45;;;;;;;1.17;0.80;;;;;;;12.83;37.90;91544.31;4935399;29;20043;-80
2023/11/24 06:55:11;;;;;;;2.58;0.80;;;;;;;12.74;38.08;91549.63;4934738;29;20111;-77
2023/11/24 06:57:36;;;;;;;2.00;0.82;;;;;;;12.73;38.28;91542.09;4935279;29;20027;-78
2023/11/24 07:00:07;;;;;;;1.08;0.60;;;;;;;12.86;38.25;91536.56;4935958;29;20044;-78
2023/11/24 07:02:33;;;;;;;1.23;0.70;;;;;;;13.03;36.96;91542.75;4936018;29;20035;-79
2023/11/24 07:05:00;;;;;;;0.45;0.45;;;;;;;13.38;35.47;91543.22;4935722;29;20535;-78
2023/11/24 07:07:25;;;;;;;2.72;0.60;;;;;;;13.91;34.44;91535.47;4933732;29;20054;-78
2023/11/24 07:09:52;;;;;;;2.17;0.70;;;;;;;14.57;33.24;91542.34;4936992;29;20051;-79
2023/11/24 07:12:18;;;;;;;0.77;0.70;;;;;;;15.80;33.00;91541.78;4934131;29;20199;-78
2023/11/24 07:14:45;;;;;;;2.05;0.70;;;;;;;16.89;32.37;91532.47;4935248;29;20036;-78
2023/11/24 07:17:12;;;;;;;0.85;0.50;;;;;;;17.86;31.53;91540.28;4935636;29;20044;-78
2023/11/24 07:19:38;;;;;;;0.93;0.52;;;;;;;18.78;27.84;91526.88;4936464;29;20036;-79
2023/11/24 07:22:10;;;;;;;1.20;0.55;;;;;;;19.54;25.73;91541.75;4928852;29;20020;-78
2023/11/24 07:24:38;;;;;;;1.73;0.60;;;;;;;20.43;25.36;91539.09;4936385;29;20122;-79
2023/11/24 07:27:05;;;;;;;0.80;0.55;;;;;;;20.82;24.37;91551.88;4935231;29;20098;-79
2023/11/24 07:29:33;;;;;;;0.52;0.50;;;;;;;21.74;23.87;91547.31;4919638;29;20080;-79
2023/11/24 07:32:01;;;;;;;0.38;0.38;;;;;;;22.42;23.77;91550.03;4935244;29;20121;-79
2023/11/24 07:34:27;;;;;;;0.60;0.43;;;;;;;22.61;21.37;91549.63;4936275;29;20496;-79
2023/11/24 07:37:02;;;;;;;0.40;0.40;;;;;;;22.14;22.11;91524.13;4935140;29;20083;-79
2023/11/24 07:39:29;;;;;;;0.55;0.38;;;;;;;21.90;21.85;91539.72;4934921;29;20063;-78
2023/11/24 07:41:58;;;;;;;0.98;0.50;;;;;;;22.02;22.38;91546.56;4934869;29;20035;-80
2023/11/24 07:44:31;;;;;;;0.65;0.63;;;;;;;22.75;22.74;91540.84;4922058;29;20059;-80
2023/11/24 07:46:57;;;;;;;1.25;0.90;;;;;;;23.57;21.57;91545.13;4938352;29;20078;-79
2023/11/24 07:49:22;;;;;;;0.60;0.60;;;;;;;24.62;18.62;91529.94;4939692;29;20055;-81
2023/11/24 07:51:48;;;;;;;0.73;0.70;;;;;;;24.75;19.58;91538.25;4940354;29;20411;-80
2023/11/24 07:54:22;;;;;;;0.88;0.88;;;;;;;26.15;18.79;91528.53;4933299;29;20451;-79
2023/11/24 07:56:48;;;;;;;0.82;0.70;;;;;;;27.10;17.71;91535.38;4939418;29;20040;-79
2023/11/24 07:59:31;;;;;;;0.75;0.75;;;;;;;27.46;17.90;91528.59;4924417;29;20038;-80
2023/11/24 08:01:57;;;;;;;0.82;0.80;;;;;;;28.50;16.71;91516.34;4939309;29;20542;-78
2023/11/24 08:04:23;;;;;;;0.70;0.70;;;;;;;29.04;17.02;91525.75;4939261;29;20358;-78
2023/11/24 08:06:49;;;;;;;1.02;0.73;;;;;;;29.32;16.59;91526.97;4938592;29;20059;-79
2023/11/24 08:09:16;;;;;;;0.85;0.80;;;;;;;29.23;16.79;91522.19;4940146;29;20040;-79
2023/11/24 08:11:43;;;;;;;0.90;0.90;;;;;;;29.38;16.06;91527.94;4940827;29;20067;-80
2023/11/24 08:14:09;;;;;;;0.93;0.82;;;;;;;29.93;14.69;91519.13;4936102;29;20407;-80
2023/11/24 08:16:35;;;;;;;0.82;0.80;;;;;;;30.20;14.51;91516.00;4933723;29;20092;-83
2023/11/24 08:19:04;;;;;;;1.00;0.95;;;;;;;29.30;15.08;91520.50;4938359;29;20562;-79
2023/11/24 08:21:30;;;;;;;2.97;0.90;;;;;;;29.56;14.90;91516.66;4923606;29;20503;-81
2023/11/24 08:23:56;;;;;;;0.80;0.80;;;;;;;29.73;15.60;91516.63;4922609;29;20039;-81
2023/11/24 08:26:21;;;;;;;0.82;0.82;;;;;;;30.20;14.54;91519.44;4915255;29;20500;-80
2023/11/24 08:28:48;;;;;;;0.80;0.80;;;;;;;30.27;13.93;91518.50;4904215;29;20090;-82
2023/11/24 08:31:19;;;;;;;0.98;0.88;;;;;;;30.34;14.43;91510.16;4918028;29;20047;-80
2023/11/24 08:33:45;;;;;;;0.90;0.90;;;;;;;30.84;13.45;91491.56;4927393;29;20044;-81
2023/11/24 08:36:15;;;;;;;0.60;0.60;;;;;;;30.34;13.79;91499.38;4926126;29;20035;-80
2023/11/24 08:38:41;;;;;;;0.57;0.57;;;;;;;28.34;14.66;91478.66;4938988;29;20492;-80
2023/11/24 08:41:16;;;;;;;0.77;0.60;;;;;;;26.34;15.69;91481.47;4928120;29;20083;-80
2023/11/24 08:43:42;;;;;;;0.55;0.50;;;;;;;25.62;15.69;91479.84;4928062;29;20431;-80
2023/11/24 08:46:09;;;;;;;0.68;0.50;;;;;;;25.30;15.10;91477.59;4936871;29;20151;-79
2023/11/24 08:48:35;;;;;;;1.10;0.70;;;;;;;25.24;15.76;91476.53;4927688;29;20555;-81
2023/11/24 08:51:02;;;;;;;0.50;0.50;;;;;;;24.76;17.11;91462.16;4937538;29;20272;-79
2023/11/24 08:53:28;;;;;;;0.60;0.55;;;;;;;24.38;16.96;91475.47;4938106;29;20052;-78
2023/11/24 08:55:55;;;;;;;0.50;0.40;;;;;;;23.55;15.64;91461.97;4937474;29;20043;-80
2023/11/24 08:58:20;;;;;;;0.60;0.60;;;;;;;22.57;18.25;91460.13;4939352;29;20095;-80
2023/11/24 09:00:46;;;;;;;0.50;0.50;;;;;;;21.25;19.44;91450.94;4933503;29;20032;-80
2023/11/24 09:03:12;;;;;;;0.38;0.38;;;;;;;21.42;19.83;91452.16;4938742;29;20050;-79
2023/11/24 09:05:38;;;;;;;0.30;0.30;;;;;;;21.76;19.34;91449.91;4938892;29;20087;-79
2023/11/24 09:08:05;;;;;;;1.02;0.55;;;;;;;21.77;19.72;91429.34;4939977;29;20039;-80
2023/11/24 09:10:32;;;;;;;1.85;0.40;;;;;;;21.55;20.24;91440.00;4938387;29;20114;-80
2023/11/24 09:12:58;;;;;;;0.50;0.43;;;;;;;21.12;18.97;91431.94;4938843;29;20036;-80
2023/11/24 09:15:24;;;;;;;0.40;0.40;;;;;;;21.38;20.20;91428.16;4937589;29;20047;-81
2023/11/24 09:17:50;;;;;;;1.85;0.50;;;;;;;21.35;20.53;91423.59;4939153;29;20255;-80
2023/11/24 09:20:17;;;;;;;0.40;0.40;;;;;;;21.32;19.60;91427.03;4931941;29;20407;-79
2023/11/24 09:22:46;;;;;;;0.50;0.50;;;;;;;21.04;20.02;91414.41;4940622;29;20039;-80
2023/11/24 09:25:14;;;;;;;0.63;0.52;;;;;;;20.85;20.63;91407.53;4936113;29;20036;-80
2023/11/24 09:27:40;;;;;;;0.65;0.40;;;;;;;20.42;20.60;91414.53;4931898;29;20032;-79
2023/11/24 09:30:08;;;;;;;1.30;0.50;;;;;;;20.10;20.77;91401.84;4935533;29;20042;-79
2023/11/24 09:32:37;;;;;;;0.50;0.50;;;;;;;19.75;20.94;91405.81;4939137;29;20023;-79
2023/11/24 09:35:07;;;;;;;1.83;0.82;;;;;;;19.96;21.08;91397.22;4939224;29;20119;-80
2023/11/24 09:37:34;;;;;;;0.73;0.50;;;;;;;19.50;20.71;91402.97;4930843;29;20043;-79
2023/11/24 09:40:00;;;;;;;1.30;0.70;;;;;;;19.27;21.61;91395.94;4922068;29;20099;-79
2023/11/24 09:42:32;;;;;;;0.50;0.45;;;;;;;19.49;21.42;91401.41;4926617;29;20070;-80
2023/11/24 09:45:03;;;;;;;0.88;0.57;;;;;;;19.59;20.64;91395.44;4939269;29;20118;-81
2023/11/24 09:47:31;;;;;;;0.43;0.30;;;;;;;19.72;19.80;91390.63;4936786;29;20484;-79
2023/11/24 09:49:59;;;;;;;0.77;0.50;;;;;;;19.58;21.06;91383.28;4939346;29;20047;-80
2023/11/24 09:52:27;;;;;;;0.80;0.47;;;;;;;19.83;21.15;91374.75;4930535;29;20103;-79
2023/11/24 09:54:58;;;;;;;1.33;0.63;;;;;;;19.76;22.47;91364.84;4930865;29;20082;-79
2023/11/24 09:57:24;;;;;;;1.23;0.50;;;;;;;19.82;19.74;91381.22;4931041;29;20052;-79
2023/11/24 09:59:50;;;;;;;0.68;0.40;;;;;;;19.99;18.55;91366.50;4925765;29;20040;-80
2023/11/24 10:02:20;;;;;;;0.98;0.60;;;;;;;19.79;20.31;91361.44;4932801;29;20036;-79
2023/11/24 10:04:46;;;;;;;0.68;0.43;;;;;;;19.79;20.48;91360.69;4937025;29;20079;-79
2023/11/24 10:07:20;;;;;;;1.40;0.70;;;;;;;19.54;21.25;91355.94;4909612;29;20068;-78
2023/11/24 10:09:50;;;;;;;0.50;0.50;;;;;;;18.84;19.65;91345.16;4932866;29;20051;-79
2023/11/24 10:12:16;;;;;;;0.65;0.50;;;;;;;19.05;19.27;91349.13;4939505;29;20115;-79
2023/11/24 10:14:46;;;;;;;1.92;0.60;;;;;;;19.43;19.67;91353.25;4937162;29;20123;-79
2023/11/24 10:17:15;;;;;;;1.40;0.70;;;;;;;19.45;19.41;91334.28;4938371;29;20047;-80
2023/11/24 10:19:41;;;;;;;1.10;0.60;;;;;;;19.32;18.79;91331.94;4938458;29;20028;-78
2023/11/24 10:22:06;;;;;;;1.00;0.50;;;;;;;19.45;19.35;91318.34;4938604;29;20055;-80
2023/11/24 10:24:38;;;;;;;0.50;0.50;;;;;;;19.37;18.50;91311.50;4923223;29;20318;-79
2023/11/24 10:27:23;;;;;;;0.50;0.50;;;;;;;19.69;18.65;91307.16;4937760;29;20590;-79
2023/11/24 10:29:50;;;;;;;0.50;0.50;;;;;;;19.68;17.56;91295.00;4932628;29;20046;-79
2023/11/24 10:32:20;;;;;;;0.77;0.60;;;;;;;19.43;18.77;91288.78;4938554;29;20032;-79
2023/11/24 10:34:48;;;;;;;1.75;0.73;;;;;;;19.88;18.91;91292.09;4936161;29;20032;-79
2023/11/24 10:37:20;;;;;;;1.15;0.52;;;;;;;19.86;17.09;91283.72;4930532;29;20059;-79
2023/11/24 10:39:47;;;;;;;;;;;;;;;20.11;18.41;91266.00;4937987;29;20087;-79
2023/11/24 10:42:19;;;;;;;0.93;0.60;;;;;;;19.98;17.73;91274.69;4933067;29;19974;-78
2023/11/24 10:44:49;;;;;;;0.52;0.52;;;;;;;20.03;18.49;91259.16;4929151;29;20079;-79
2023/11/24 10:47:23;;;;;;;0.60;0.50;;;;;;;19.99;18.25;91260.28;4937499;29;20059;-78
2023/11/24 10:50:02;;;;;;;0.50;0.50;;;;;;;20.04;18.86;91255.38;4931541;29;20051;-78
2023/11/24 10:52:32;;;;;;;0.88;0.60;;;;;;;20.30;19.88;91258.84;4924964;29;20115;-80
2023/11/24 10:55:13;;;;;;;0.40;0.40;;;;;;;20.70;18.69;91238.47;4932244;29;20119;-80
2023/11/24 10:57:41;;;;;;;1.50;0.60;;;;;;;20.39;17.45;91225.47;4925168;29;20091;-77
2023/11/24 11:00:14;;;;;;;0.65;0.60;;;;;;;20.23;17.69;91229.63;4939258;29;20036;-79
2023/11/24 11:02:42;;;;;;;1.05;0.60;;;;;;;20.38;17.38;91231.16;4921020;29;20071;-79
2023/11/24 11:05:08;;;;;;;1.00;0.55;;;;;;;20.81;17.98;91217.94;4934793;29;20487;-78
2023/11/24 11:08:18;;;;;;;0.30;0.30;;;;;;;20.77;16.06;91201.97;4940265;29;20031;-78
2023/11/24 11:11:12;;;;;;;1.00;0.50;;;;;;;21.04;16.51;91204.25;4939560;29;20039;-79
2023/11/24 11:13:41;;;;;;;0.50;0.50;;;;;;;20.81;17.22;91209.97;4937527;29;20035;-80
2023/11/24 11:16:10;;;;;;;0.60;0.55;;;;;;;20.78;17.38;91194.75;4941079;29;20055;-79
2023/11/24 11:18:36;;;;;;;1.52;0.40;;;;;;;20.51;16.75;91189.81;4935978;29;20512;-80
2023/11/24 11:21:16;;;;;;;0.57;0.43;;;;;;;20.82;18.50;91198.19;4929296;29;20163;-80
2023/11/24 11:23:42;;;;;;;0.50;0.50;;;;;;;20.77;18.31;91180.72;4938934;29;20054;-80
2023/11/24 11:26:08;;;;;;;0.45;0.40;;;;;;;20.84;18.59;91164.00;4937470;29;20047;-79
2023/11/24 11:28:42;;;;;;;0.70;0.50;;;;;;;21.05;16.50;91176.50;4917715;29;20515;-78
2023/11/24 11:31:32;;;;;;;0.50;0.50;;;;;;;21.03;16.29;91168.16;4933673;29;20118;-79
2023/11/24 11:34:12;;;;;;;0.47;0.47;;;;;;;20.78;16.57;91162.84;4937209;29;20146;-80
2023/11/24 11:36:49;;;;;;;0.85;0.50;;;;;;;20.83;17.00;91140.44;4937631;29;20036;-80
2023/11/24 11:39:19;;;;;;;1.45;0.50;;;;;;;20.89;17.93;91142.31;4938365;29;20515;-80